sensor_id;sensor_type;location;lat;lon;timestamp;P1;durP1;ratioP1;P2;durP2;ratioP2
16426;SDS011;8322;-33.900;151.170;2023-08-01T00:01:05;4.07;;;1.52;;
16426;SDS011;8322;-33.900;151.170;2023-08-01T00:03:35;5.97;;;2.10;;
16426;SDS011;8322;-33.900;151.170;2023-08-01T00:06:04;5.72;;;1.50;;
16426;SDS011;8322;-33.900;151.170;2023-08-01T00:08:34;3.13;;;1.08;;
16426;SDS011;8322;-33.900;151.170;2023-08-01T00:11:03;3.58;;;1.33;;
16426;SDS011;8322;-33.900;151.170;2023-08-01T00:13:33;1.95;;;1.00;;
16426;SDS011;8322;-33.900;151.170;2023-08-01T00:16:04;7.10;;;1.20;;
16426;SDS011;8322;-33.900;151.170;2023-08-01T00:18:33;3.53;;;1.02;;
16426;SDS011;8322;-33.900;151.170;2023-08-01T00:21:03;2.90;;;1.02;;
16426;SDS011;8322;-33.900;151.170;2023-08-01T00:23:35;4.63;;;1.50;;
16426;SDS011;8322;-33.900;151.170;2023-08-01T00:26:05;3.45;;;1.02;;
16426;SDS011;8322;-33.900;151.170;2023-08-01T00:28:34;2.30;;;1.20;;
16426;SDS011;8322;-33.900;151.170;2023-08-01T00:31:06;3.45;;;1.20;;
16426;SDS011;8322;-33.900;151.170;2023-08-01T00:33:36;4.43;;;1.17;;
16426;SDS011;8322;-33.900;151.170;2023-08-01T00:36:06;4.22;;;1.30;;
16426;SDS011;8322;-33.900;151.170;2023-08-01T00:38:37;6.53;;;1.35;;
16426;SDS011;8322;-33.900;151.170;2023-08-01T00:41:09;2.63;;;1.10;;
16426;SDS011;8322;-33.900;151.170;2023-08-01T00:43:38;3.67;;;1.20;;
16426;SDS011;8322;-33.900;151.170;2023-08-01T00:46:09;2.63;;;1.20;;
16426;SDS011;8322;-33.900;151.170;2023-08-01T00:48:39;3.90;;;1.25;;
16426;SDS011;8322;-33.900;151.170;2023-08-01T00:51:09;4.03;;;1.00;;
16426;SDS011;8322;-33.900;151.170;2023-08-01T00:53:39;4.32;;;1.00;;
16426;SDS011;8322;-33.900;151.170;2023-08-01T00:56:08;4.60;;;0.82;;
16426;SDS011;8322;-33.900;151.170;2023-08-01T00:58:38;3.90;;;1.08;;
16426;SDS011;8322;-33.900;151.170;2023-08-01T01:01:07;4.05;;;1.05;;
16426;SDS011;8322;-33.900;151.170;2023-08-01T01:03:38;4.10;;;1.30;;
16426;SDS011;8322;-33.900;151.170;2023-08-01T01:06:09;3.92;;;1.20;;
16426;SDS011;8322;-33.900;151.170;2023-08-01T01:08:41;3.33;;;0.95;;
16426;SDS011;8322;-33.900;151.170;2023-08-01T01:11:11;4.47;;;1.05;;
16426;SDS011;8322;-33.900;151.170;2023-08-01T01:13:40;3.05;;;0.82;;
16426;SDS011;8322;-33.900;151.170;2023-08-01T01:16:10;4.13;;;0.93;;
16426;SDS011;8322;-33.900;151.170;2023-08-01T01:18:42;6.63;;;1.20;;
16426;SDS011;8322;-33.900;151.170;2023-08-01T01:21:14;4.75;;;1.00;;
16426;SDS011;8322;-33.900;151.170;2023-08-01T01:23:43;4.18;;;1.40;;
16426;SDS011;8322;-33.900;151.170;2023-08-01T01:26:13;4.00;;;1.23;;
16426;SDS011;8322;-33.900;151.170;2023-08-01T01:28:46;3.13;;;1.08;;
16426;SDS011;8322;-33.900;151.170;2023-08-01T01:31:16;3.45;;;1.00;;
16426;SDS011;8322;-33.900;151.170;2023-08-01T01:33:45;2.95;;;0.80;;
16426;SDS011;8322;-33.900;151.170;2023-08-01T01:36:17;3.35;;;0.90;;
16426;SDS011;8322;-33.900;151.170;2023-08-01T01:38:46;2.65;;;0.88;;
16426;SDS011;8322;-33.900;151.170;2023-08-01T01:41:16;2.78;;;1.05;;
16426;SDS011;8322;-33.900;151.170;2023-08-01T01:43:45;5.95;;;1.10;;
16426;SDS011;8322;-33.900;151.170;2023-08-01T01:46:15;2.47;;;0.90;;
16426;SDS011;8322;-33.900;151.170;2023-08-01T01:48:44;3.92;;;1.00;;
16426;SDS011;8322;-33.900;151.170;2023-08-01T01:51:14;4.43;;;1.20;;
16426;SDS011;8322;-33.900;151.170;2023-08-01T01:53:45;3.00;;;1.10;;
16426;SDS011;8322;-33.900;151.170;2023-08-01T01:56:14;4.20;;;1.08;;
16426;SDS011;8322;-33.900;151.170;2023-08-01T01:58:44;6.85;;;1.73;;
16426;SDS011;8322;-33.900;151.170;2023-08-01T02:01:13;3.47;;;1.20;;
16426;SDS011;8322;-33.900;151.170;2023-08-01T02:03:43;3.20;;;1.10;;
16426;SDS011;8322;-33.900;151.170;2023-08-01T02:06:12;1.65;;;0.80;;
16426;SDS011;8322;-33.900;151.170;2023-08-01T02:08:47;1.98;;;0.85;;
16426;SDS011;8322;-33.900;151.170;2023-08-01T02:11:16;3.03;;;1.00;;
16426;SDS011;8322;-33.900;151.170;2023-08-01T02:13:46;5.13;;;1.05;;
16426;SDS011;8322;-33.900;151.170;2023-08-01T02:16:15;3.88;;;1.17;;
16426;SDS011;8322;-33.900;151.170;2023-08-01T02:18:45;3.28;;;1.00;;
16426;SDS011;8322;-33.900;151.170;2023-08-01T02:21:14;3.75;;;1.10;;
16426;SDS011;8322;-33.900;151.170;2023-08-01T02:23:44;2.67;;;0.80;;
16426;SDS011;8322;-33.900;151.170;2023-08-01T02:26:15;2.75;;;0.88;;
16426;SDS011;8322;-33.900;151.170;2023-08-01T02:28:45;2.42;;;0.75;;
16426;SDS011;8322;-33.900;151.170;2023-08-01T02:31:15;2.10;;;0.68;;
16426;SDS011;8322;-33.900;151.170;2023-08-01T02:33:44;3.38;;;0.80;;
16426;SDS011;8322;-33.900;151.170;2023-08-01T02:36:14;4.22;;;0.80;;
16426;SDS011;8322;-33.900;151.170;2023-08-01T02:38:43;2.85;;;1.00;;
16426;SDS011;8322;-33.900;151.170;2023-08-01T02:41:13;3.13;;;0.90;;
16426;SDS011;8322;-33.900;151.170;2023-08-01T02:43:44;2.15;;;0.90;;
16426;SDS011;8322;-33.900;151.170;2023-08-01T02:46:16;2.17;;;0.90;;
16426;SDS011;8322;-33.900;151.170;2023-08-01T02:48:46;2.97;;;0.75;;
16426;SDS011;8322;-33.900;151.170;2023-08-01T02:51:16;3.28;;;0.80;;
16426;SDS011;8322;-33.900;151.170;2023-08-01T02:53:45;1.88;;;0.80;;
16426;SDS011;8322;-33.900;151.170;2023-08-01T02:56:15;3.33;;;0.80;;
16426;SDS011;8322;-33.900;151.170;2023-08-01T02:58:46;3.03;;;0.80;;
16426;SDS011;8322;-33.900;151.170;2023-08-01T03:01:18;3.42;;;1.17;;
16426;SDS011;8322;-33.900;151.170;2023-08-01T03:03:47;3.83;;;0.77;;
16426;SDS011;8322;-33.900;151.170;2023-08-01T03:06:17;3.17;;;1.08;;
16426;SDS011;8322;-33.900;151.170;2023-08-01T03:08:46;2.45;;;0.93;;
16426;SDS011;8322;-33.900;151.170;2023-08-01T03:11:17;2.08;;;0.90;;
16426;SDS011;8322;-33.900;151.170;2023-08-01T03:13:48;2.83;;;0.73;;
16426;SDS011;8322;-33.900;151.170;2023-08-01T03:16:18;1.85;;;0.80;;
16426;SDS011;8322;-33.900;151.170;2023-08-01T03:18:47;3.53;;;0.90;;
16426;SDS011;8322;-33.900;151.170;2023-08-01T03:21:17;3.78;;;0.80;;
16426;SDS011;8322;-33.900;151.170;2023-08-01T03:23:52;3.05;;;0.80;;
16426;SDS011;8322;-33.900;151.170;2023-08-01T03:26:23;2.95;;;1.20;;
16426;SDS011;8322;-33.900;151.170;2023-08-01T03:28:56;3.83;;;1.10;;
16426;SDS011;8322;-33.900;151.170;2023-08-01T03:31:25;2.83;;;0.95;;
16426;SDS011;8322;-33.900;151.170;2023-08-01T03:33:55;3.15;;;0.90;;
16426;SDS011;8322;-33.900;151.170;2023-08-01T03:36:25;4.25;;;0.93;;
16426;SDS011;8322;-33.900;151.170;2023-08-01T03:38:55;1.77;;;0.70;;
16426;SDS011;8322;-33.900;151.170;2023-08-01T03:41:25;3.00;;;0.60;;
16426;SDS011;8322;-33.900;151.170;2023-08-01T03:43:57;2.78;;;0.85;;
16426;SDS011;8322;-33.900;151.170;2023-08-01T03:46:26;1.90;;;0.88;;
16426;SDS011;8322;-33.900;151.170;2023-08-01T03:48:55;4.32;;;1.05;;
16426;SDS011;8322;-33.900;151.170;2023-08-01T03:51:25;1.75;;;0.70;;
16426;SDS011;8322;-33.900;151.170;2023-08-01T03:53:54;4.70;;;0.70;;
16426;SDS011;8322;-33.900;151.170;2023-08-01T03:56:24;5.78;;;1.10;;
16426;SDS011;8322;-33.900;151.170;2023-08-01T03:58:53;2.85;;;0.88;;
16426;SDS011;8322;-33.900;151.170;2023-08-01T04:01:24;1.95;;;0.82;;
16426;SDS011;8322;-33.900;151.170;2023-08-01T04:03:54;2.78;;;0.90;;
16426;SDS011;8322;-33.900;151.170;2023-08-01T04:06:23;4.82;;;0.93;;
16426;SDS011;8322;-33.900;151.170;2023-08-01T04:08:53;0.68;;;0.57;;
16426;SDS011;8322;-33.900;151.170;2023-08-01T04:11:23;2.15;;;0.90;;
16426;SDS011;8322;-33.900;151.170;2023-08-01T04:13:52;3.08;;;0.90;;
16426;SDS011;8322;-33.900;151.170;2023-08-01T04:16:21;1.48;;;0.52;;
16426;SDS011;8322;-33.900;151.170;2023-08-01T04:18:53;1.38;;;0.82;;
16426;SDS011;8322;-33.900;151.170;2023-08-01T04:21:22;3.05;;;0.80;;
16426;SDS011;8322;-33.900;151.170;2023-08-01T04:23:52;1.80;;;0.80;;
16426;SDS011;8322;-33.900;151.170;2023-08-01T04:26:21;3.28;;;0.80;;
16426;SDS011;8322;-33.900;151.170;2023-08-01T04:28:51;2.08;;;0.77;;
16426;SDS011;8322;-33.900;151.170;2023-08-01T04:31:20;1.42;;;0.77;;
16426;SDS011;8322;-33.900;151.170;2023-08-01T04:33:50;3.88;;;0.90;;
16426;SDS011;8322;-33.900;151.170;2023-08-01T04:36:23;2.17;;;0.60;;
16426;SDS011;8322;-33.900;151.170;2023-08-01T04:38:55;2.10;;;0.90;;
16426;SDS011;8322;-33.900;151.170;2023-08-01T04:41:25;2.22;;;0.77;;
16426;SDS011;8322;-33.900;151.170;2023-08-01T04:43:55;1.45;;;0.68;;
16426;SDS011;8322;-33.900;151.170;2023-08-01T04:46:24;2.30;;;0.77;;
16426;SDS011;8322;-33.900;151.170;2023-08-01T04:48:57;1.20;;;0.60;;
16426;SDS011;8322;-33.900;151.170;2023-08-01T04:51:28;2.10;;;0.70;;
16426;SDS011;8322;-33.900;151.170;2023-08-01T04:53:58;1.58;;;0.70;;
16426;SDS011;8322;-33.900;151.170;2023-08-01T04:56:27;2.53;;;0.82;;
16426;SDS011;8322;-33.900;151.170;2023-08-01T04:58:56;2.72;;;0.57;;
16426;SDS011;8322;-33.900;151.170;2023-08-01T05:01:30;3.08;;;0.73;;
16426;SDS011;8322;-33.900;151.170;2023-08-01T05:04:00;2.70;;;1.40;;
16426;SDS011;8322;-33.900;151.170;2023-08-01T05:06:31;3.35;;;0.80;;
16426;SDS011;8322;-33.900;151.170;2023-08-01T05:09:00;1.80;;;0.88;;
16426;SDS011;8322;-33.900;151.170;2023-08-01T05:11:30;1.58;;;0.60;;
16426;SDS011;8322;-33.900;151.170;2023-08-01T05:14:00;3.60;;;1.02;;
16426;SDS011;8322;-33.900;151.170;2023-08-01T05:16:29;1.88;;;0.80;;
16426;SDS011;8322;-33.900;151.170;2023-08-01T05:18:59;1.23;;;0.70;;
16426;SDS011;8322;-33.900;151.170;2023-08-01T05:21:30;4.38;;;1.20;;
16426;SDS011;8322;-33.900;151.170;2023-08-01T05:24:00;4.22;;;0.80;;
16426;SDS011;8322;-33.900;151.170;2023-08-01T05:26:29;1.40;;;1.00;;
16426;SDS011;8322;-33.900;151.170;2023-08-01T05:28:59;3.05;;;0.70;;
16426;SDS011;8322;-33.900;151.170;2023-08-01T05:31:29;3.45;;;0.75;;
16426;SDS011;8322;-33.900;151.170;2023-08-01T05:33:59;3.92;;;0.80;;
16426;SDS011;8322;-33.900;151.170;2023-08-01T05:36:30;2.97;;;1.20;;
16426;SDS011;8322;-33.900;151.170;2023-08-01T05:39:01;2.35;;;0.80;;
16426;SDS011;8322;-33.900;151.170;2023-08-01T05:41:30;3.92;;;0.80;;
16426;SDS011;8322;-33.900;151.170;2023-08-01T05:44:00;1.98;;;0.90;;
16426;SDS011;8322;-33.900;151.170;2023-08-01T05:46:29;3.95;;;1.00;;
16426;SDS011;8322;-33.900;151.170;2023-08-01T05:48:59;4.00;;;0.85;;
16426;SDS011;8322;-33.900;151.170;2023-08-01T05:51:30;1.90;;;0.70;;
16426;SDS011;8322;-33.900;151.170;2023-08-01T05:54:00;1.08;;;0.70;;
16426;SDS011;8322;-33.900;151.170;2023-08-01T05:56:29;2.17;;;0.60;;
16426;SDS011;8322;-33.900;151.170;2023-08-01T05:58:59;3.10;;;0.90;;
16426;SDS011;8322;-33.900;151.170;2023-08-01T06:01:28;3.20;;;0.88;;
16426;SDS011;8322;-33.900;151.170;2023-08-01T06:03:57;5.93;;;1.00;;
16426;SDS011;8322;-33.900;151.170;2023-08-01T06:06:27;2.25;;;0.70;;
16426;SDS011;8322;-33.900;151.170;2023-08-01T06:08:58;2.45;;;0.80;;
16426;SDS011;8322;-33.900;151.170;2023-08-01T06:11:28;2.25;;;0.80;;
16426;SDS011;8322;-33.900;151.170;2023-08-01T06:13:59;3.28;;;0.73;;
16426;SDS011;8322;-33.900;151.170;2023-08-01T06:16:28;3.10;;;0.70;;
16426;SDS011;8322;-33.900;151.170;2023-08-01T06:18:58;3.05;;;1.10;;
16426;SDS011;8322;-33.900;151.170;2023-08-01T06:21:28;1.85;;;0.90;;
16426;SDS011;8322;-33.900;151.170;2023-08-01T06:23:59;2.17;;;0.90;;
16426;SDS011;8322;-33.900;151.170;2023-08-01T06:26:29;1.88;;;0.65;;
16426;SDS011;8322;-33.900;151.170;2023-08-01T06:28:58;2.92;;;0.82;;
16426;SDS011;8322;-33.900;151.170;2023-08-01T06:31:28;2.20;;;0.90;;
16426;SDS011;8322;-33.900;151.170;2023-08-01T06:33:58;2.83;;;1.13;;
16426;SDS011;8322;-33.900;151.170;2023-08-01T06:36:27;3.47;;;1.10;;
16426;SDS011;8322;-33.900;151.170;2023-08-01T06:39:01;2.03;;;0.73;;
16426;SDS011;8322;-33.900;151.170;2023-08-01T06:41:31;2.60;;;0.90;;
16426;SDS011;8322;-33.900;151.170;2023-08-01T06:44:02;2.33;;;0.80;;
16426;SDS011;8322;-33.900;151.170;2023-08-01T06:46:33;3.85;;;1.13;;
16426;SDS011;8322;-33.900;151.170;2023-08-01T06:49:03;2.70;;;1.10;;
16426;SDS011;8322;-33.900;151.170;2023-08-01T06:51:32;3.42;;;0.90;;
16426;SDS011;8322;-33.900;151.170;2023-08-01T06:54:04;3.15;;;1.40;;
16426;SDS011;8322;-33.900;151.170;2023-08-01T06:56:33;3.30;;;0.90;;
16426;SDS011;8322;-33.900;151.170;2023-08-01T06:59:03;1.95;;;0.77;;
16426;SDS011;8322;-33.900;151.170;2023-08-01T07:01:32;3.20;;;1.15;;
16426;SDS011;8322;-33.900;151.170;2023-08-01T07:04:05;2.78;;;1.13;;
16426;SDS011;8322;-33.900;151.170;2023-08-01T07:06:34;3.58;;;0.95;;
16426;SDS011;8322;-33.900;151.170;2023-08-01T07:09:12;3.92;;;1.17;;
16426;SDS011;8322;-33.900;151.170;2023-08-01T07:11:41;3.28;;;1.10;;
16426;SDS011;8322;-33.900;151.170;2023-08-01T07:14:11;4.75;;;1.30;;
16426;SDS011;8322;-33.900;151.170;2023-08-01T07:16:40;7.70;;;1.40;;
16426;SDS011;8322;-33.900;151.170;2023-08-01T07:19:10;4.20;;;1.35;;
16426;SDS011;8322;-33.900;151.170;2023-08-01T07:21:39;3.63;;;1.55;;
16426;SDS011;8322;-33.900;151.170;2023-08-01T07:24:12;4.05;;;1.33;;
16426;SDS011;8322;-33.900;151.170;2023-08-01T07:26:41;2.58;;;1.35;;
16426;SDS011;8322;-33.900;151.170;2023-08-01T07:29:11;7.32;;;1.20;;
16426;SDS011;8322;-33.900;151.170;2023-08-01T07:31:41;4.25;;;1.35;;
16426;SDS011;8322;-33.900;151.170;2023-08-01T07:34:12;5.57;;;1.40;;
16426;SDS011;8322;-33.900;151.170;2023-08-01T07:36:41;5.07;;;1.40;;
16426;SDS011;8322;-33.900;151.170;2023-08-01T07:39:13;8.27;;;3.80;;
16426;SDS011;8322;-33.900;151.170;2023-08-01T07:41:43;6.93;;;2.97;;
16426;SDS011;8322;-33.900;151.170;2023-08-01T07:44:12;4.35;;;2.15;;
16426;SDS011;8322;-33.900;151.170;2023-08-01T07:46:42;5.50;;;1.83;;
16426;SDS011;8322;-33.900;151.170;2023-08-01T07:49:12;7.93;;;2.30;;
16426;SDS011;8322;-33.900;151.170;2023-08-01T07:51:42;7.25;;;2.45;;
16426;SDS011;8322;-33.900;151.170;2023-08-01T07:54:13;9.25;;;3.85;;
16426;SDS011;8322;-33.900;151.170;2023-08-01T07:56:42;7.35;;;4.00;;
16426;SDS011;8322;-33.900;151.170;2023-08-01T07:59:14;7.28;;;3.67;;
16426;SDS011;8322;-33.900;151.170;2023-08-01T08:01:44;7.78;;;3.55;;
16426;SDS011;8322;-33.900;151.170;2023-08-01T08:04:14;7.95;;;2.42;;
16426;SDS011;8322;-33.900;151.170;2023-08-01T08:06:43;5.97;;;2.30;;
16426;SDS011;8322;-33.900;151.170;2023-08-01T08:09:14;6.65;;;2.30;;
16426;SDS011;8322;-33.900;151.170;2023-08-01T08:11:44;4.45;;;2.05;;
16426;SDS011;8322;-33.900;151.170;2023-08-01T08:14:13;5.55;;;2.72;;
16426;SDS011;8322;-33.900;151.170;2023-08-01T08:16:43;8.32;;;3.42;;
16426;SDS011;8322;-33.900;151.170;2023-08-01T08:19:15;9.48;;;4.22;;
16426;SDS011;8322;-33.900;151.170;2023-08-01T08:21:44;9.48;;;3.78;;
16426;SDS011;8322;-33.900;151.170;2023-08-01T08:24:16;10.57;;;3.75;;
16426;SDS011;8322;-33.900;151.170;2023-08-01T08:26:45;9.45;;;3.72;;
16426;SDS011;8322;-33.900;151.170;2023-08-01T08:29:15;8.93;;;3.92;;
16426;SDS011;8322;-33.900;151.170;2023-08-01T08:31:45;8.05;;;2.65;;
16426;SDS011;8322;-33.900;151.170;2023-08-01T08:34:14;8.25;;;3.00;;
16426;SDS011;8322;-33.900;151.170;2023-08-01T08:36:44;7.22;;;3.70;;
16426;SDS011;8322;-33.900;151.170;2023-08-01T08:39:17;7.35;;;4.10;;
16426;SDS011;8322;-33.900;151.170;2023-08-01T08:41:47;11.25;;;4.50;;
16426;SDS011;8322;-33.900;151.170;2023-08-01T08:44:18;8.90;;;4.68;;
16426;SDS011;8322;-33.900;151.170;2023-08-01T08:46:49;9.57;;;4.30;;
16426;SDS011;8322;-33.900;151.170;2023-08-01T08:49:19;9.88;;;4.13;;
16426;SDS011;8322;-33.900;151.170;2023-08-01T08:51:48;11.10;;;4.25;;
16426;SDS011;8322;-33.900;151.170;2023-08-01T08:54:20;9.20;;;3.85;;
16426;SDS011;8322;-33.900;151.170;2023-08-01T08:56:49;9.40;;;3.38;;
16426;SDS011;8322;-33.900;151.170;2023-08-01T08:59:19;10.43;;;3.70;;
16426;SDS011;8322;-33.900;151.170;2023-08-01T09:01:51;11.50;;;4.28;;
16426;SDS011;8322;-33.900;151.170;2023-08-01T09:04:20;12.25;;;4.47;;
16426;SDS011;8322;-33.900;151.170;2023-08-01T09:06:50;9.68;;;3.85;;
16426;SDS011;8322;-33.900;151.170;2023-08-01T09:09:22;11.18;;;4.78;;
16426;SDS011;8322;-33.900;151.170;2023-08-01T09:11:52;11.20;;;5.43;;
16426;SDS011;8322;-33.900;151.170;2023-08-01T09:14:22;13.98;;;5.30;;
16426;SDS011;8322;-33.900;151.170;2023-08-01T09:16:52;10.23;;;5.65;;
16426;SDS011;8322;-33.900;151.170;2023-08-01T09:19:22;10.85;;;4.78;;
16426;SDS011;8322;-33.900;151.170;2023-08-01T09:21:53;15.75;;;5.60;;
16426;SDS011;8322;-33.900;151.170;2023-08-01T09:24:24;11.02;;;4.18;;
16426;SDS011;8322;-33.900;151.170;2023-08-01T09:27:01;9.35;;;3.05;;
16426;SDS011;8322;-33.900;151.170;2023-08-01T09:29:31;9.48;;;3.63;;
16426;SDS011;8322;-33.900;151.170;2023-08-01T09:32:10;14.45;;;3.35;;
16426;SDS011;8322;-33.900;151.170;2023-08-01T09:34:41;10.15;;;3.17;;
16426;SDS011;8322;-33.900;151.170;2023-08-01T09:37:11;9.15;;;3.85;;
16426;SDS011;8322;-33.900;151.170;2023-08-01T09:39:44;8.60;;;3.63;;
16426;SDS011;8322;-33.900;151.170;2023-08-01T09:42:21;10.07;;;2.85;;
16426;SDS011;8322;-33.900;151.170;2023-08-01T09:44:51;8.75;;;2.50;;
16426;SDS011;8322;-33.900;151.170;2023-08-01T09:47:20;7.32;;;2.50;;
16426;SDS011;8322;-33.900;151.170;2023-08-01T09:49:50;8.25;;;2.35;;
16426;SDS011;8322;-33.900;151.170;2023-08-01T09:52:26;4.65;;;2.40;;
16426;SDS011;8322;-33.900;151.170;2023-08-01T09:54:57;11.05;;;2.80;;
16426;SDS011;8322;-33.900;151.170;2023-08-01T09:57:29;6.65;;;2.55;;
16426;SDS011;8322;-33.900;151.170;2023-08-01T09:59:59;8.57;;;2.88;;
16426;SDS011;8322;-33.900;151.170;2023-08-01T10:02:29;5.15;;;2.70;;
16426;SDS011;8322;-33.900;151.170;2023-08-01T10:04:59;8.27;;;2.70;;
16426;SDS011;8322;-33.900;151.170;2023-08-01T10:07:29;7.20;;;3.00;;
16426;SDS011;8322;-33.900;151.170;2023-08-01T10:10:01;6.50;;;2.80;;
16426;SDS011;8322;-33.900;151.170;2023-08-01T10:12:30;8.07;;;3.22;;
16426;SDS011;8322;-33.900;151.170;2023-08-01T10:15:00;8.18;;;3.10;;
16426;SDS011;8322;-33.900;151.170;2023-08-01T10:17:30;8.77;;;3.30;;
16426;SDS011;8322;-33.900;151.170;2023-08-01T10:20:00;7.38;;;2.58;;
16426;SDS011;8322;-33.900;151.170;2023-08-01T10:22:30;7.18;;;2.95;;
16426;SDS011;8322;-33.900;151.170;2023-08-01T10:25:03;8.60;;;2.88;;
16426;SDS011;8322;-33.900;151.170;2023-08-01T10:27:33;10.30;;;2.58;;
16426;SDS011;8322;-33.900;151.170;2023-08-01T10:30:03;5.65;;;2.90;;
16426;SDS011;8322;-33.900;151.170;2023-08-01T10:32:33;9.45;;;3.03;;
16426;SDS011;8322;-33.900;151.170;2023-08-01T10:35:04;7.53;;;3.03;;
16426;SDS011;8322;-33.900;151.170;2023-08-01T10:37:40;8.32;;;3.55;;
16426;SDS011;8322;-33.900;151.170;2023-08-01T10:40:12;10.43;;;4.00;;
16426;SDS011;8322;-33.900;151.170;2023-08-01T10:42:43;8.05;;;3.55;;
16426;SDS011;8322;-33.900;151.170;2023-08-01T10:45:22;6.55;;;3.03;;
16426;SDS011;8322;-33.900;151.170;2023-08-01T10:47:53;7.88;;;2.70;;
16426;SDS011;8322;-33.900;151.170;2023-08-01T10:50:22;8.65;;;2.75;;
16426;SDS011;8322;-33.900;151.170;2023-08-01T10:52:52;4.60;;;1.98;;
16426;SDS011;8322;-33.900;151.170;2023-08-01T10:55:42;8.70;;;2.20;;
16426;SDS011;8322;-33.900;151.170;2023-08-01T10:58:12;4.53;;;2.10;;
16426;SDS011;8322;-33.900;151.170;2023-08-01T11:00:42;4.70;;;2.38;;
16426;SDS011;8322;-33.900;151.170;2023-08-01T11:03:11;8.38;;;2.30;;
16426;SDS011;8322;-33.900;151.170;2023-08-01T11:05:41;6.13;;;2.35;;
16426;SDS011;8322;-33.900;151.170;2023-08-01T11:08:11;6.75;;;2.70;;
16426;SDS011;8322;-33.900;151.170;2023-08-01T11:10:48;8.18;;;2.50;;
16426;SDS011;8322;-33.900;151.170;2023-08-01T11:13:18;7.40;;;2.80;;
16426;SDS011;8322;-33.900;151.170;2023-08-01T11:15:47;4.90;;;2.47;;
16426;SDS011;8322;-33.900;151.170;2023-08-01T11:18:19;5.32;;;2.03;;
16426;SDS011;8322;-33.900;151.170;2023-08-01T11:20:48;5.35;;;2.47;;
16426;SDS011;8322;-33.900;151.170;2023-08-01T11:23:18;7.45;;;3.08;;
16426;SDS011;8322;-33.900;151.170;2023-08-01T11:25:49;7.30;;;3.05;;
16426;SDS011;8322;-33.900;151.170;2023-08-01T11:28:20;8.10;;;2.97;;
16426;SDS011;8322;-33.900;151.170;2023-08-01T11:30:51;7.38;;;2.70;;
16426;SDS011;8322;-33.900;151.170;2023-08-01T11:33:21;5.60;;;2.50;;
16426;SDS011;8322;-33.900;151.170;2023-08-01T11:35:51;6.45;;;2.38;;
16426;SDS011;8322;-33.900;151.170;2023-08-01T11:38:22;7.22;;;2.33;;
16426;SDS011;8322;-33.900;151.170;2023-08-01T11:40:54;7.72;;;2.55;;
16426;SDS011;8322;-33.900;151.170;2023-08-01T11:43:23;4.65;;;2.35;;
16426;SDS011;8322;-33.900;151.170;2023-08-01T11:45:53;7.88;;;2.60;;
16426;SDS011;8322;-33.900;151.170;2023-08-01T11:48:24;7.40;;;2.58;;
16426;SDS011;8322;-33.900;151.170;2023-08-01T11:50:56;6.85;;;2.75;;
16426;SDS011;8322;-33.900;151.170;2023-08-01T11:53:26;6.18;;;2.45;;
16426;SDS011;8322;-33.900;151.170;2023-08-01T11:55:57;9.13;;;2.80;;
16426;SDS011;8322;-33.900;151.170;2023-08-01T11:58:30;7.45;;;3.08;;
16426;SDS011;8322;-33.900;151.170;2023-08-01T12:01:03;5.85;;;3.50;;
16426;SDS011;8322;-33.900;151.170;2023-08-01T12:03:42;8.85;;;3.53;;
16426;SDS011;8322;-33.900;151.170;2023-08-01T12:06:10;6.85;;;3.05;;
16426;SDS011;8322;-33.900;151.170;2023-08-01T12:08:40;6.55;;;2.90;;
16426;SDS011;8322;-33.900;151.170;2023-08-01T12:11:20;7.72;;;3.22;;
16426;SDS011;8322;-33.900;151.170;2023-08-01T12:13:59;7.28;;;3.42;;
16426;SDS011;8322;-33.900;151.170;2023-08-01T12:16:30;4.80;;;2.95;;
16426;SDS011;8322;-33.900;151.170;2023-08-01T12:18:59;7.10;;;2.97;;
16426;SDS011;8322;-33.900;151.170;2023-08-01T12:21:29;10.65;;;3.60;;
16426;SDS011;8322;-33.900;151.170;2023-08-01T12:23:58;8.88;;;3.63;;
16426;SDS011;8322;-33.900;151.170;2023-08-01T12:26:30;9.63;;;3.28;;
16426;SDS011;8322;-33.900;151.170;2023-08-01T12:29:00;7.05;;;3.35;;
16426;SDS011;8322;-33.900;151.170;2023-08-01T12:31:29;8.50;;;3.20;;
16426;SDS011;8322;-33.900;151.170;2023-08-01T12:33:59;8.13;;;2.90;;
16426;SDS011;8322;-33.900;151.170;2023-08-01T12:36:28;8.43;;;3.10;;
16426;SDS011;8322;-33.900;151.170;2023-08-01T12:38:58;7.85;;;2.90;;
16426;SDS011;8322;-33.900;151.170;2023-08-01T12:41:29;7.13;;;2.50;;
16426;SDS011;8322;-33.900;151.170;2023-08-01T12:43:58;6.32;;;2.65;;
16426;SDS011;8322;-33.900;151.170;2023-08-01T12:46:28;8.75;;;2.90;;
16426;SDS011;8322;-33.900;151.170;2023-08-01T12:48:57;9.70;;;3.10;;
16426;SDS011;8322;-33.900;151.170;2023-08-01T12:51:28;8.02;;;2.65;;
16426;SDS011;8322;-33.900;151.170;2023-08-01T12:53:58;4.57;;;2.65;;
16426;SDS011;8322;-33.900;151.170;2023-08-01T12:56:29;6.03;;;3.00;;
16426;SDS011;8322;-33.900;151.170;2023-08-01T12:58:59;6.80;;;2.95;;
16426;SDS011;8322;-33.900;151.170;2023-08-01T13:01:28;6.47;;;3.10;;
16426;SDS011;8322;-33.900;151.170;2023-08-01T13:03:58;9.32;;;3.15;;
16426;SDS011;8322;-33.900;151.170;2023-08-01T13:06:27;9.40;;;2.95;;
16426;SDS011;8322;-33.900;151.170;2023-08-01T13:08:57;7.22;;;2.75;;
16426;SDS011;8322;-33.900;151.170;2023-08-01T13:11:26;5.20;;;2.90;;
16426;SDS011;8322;-33.900;151.170;2023-08-01T13:13:58;8.57;;;3.45;;
16426;SDS011;8322;-33.900;151.170;2023-08-01T13:16:27;9.07;;;3.22;;
16426;SDS011;8322;-33.900;151.170;2023-08-01T13:18:56;9.43;;;4.10;;
16426;SDS011;8322;-33.900;151.170;2023-08-01T13:21:26;7.85;;;3.47;;
16426;SDS011;8322;-33.900;151.170;2023-08-01T13:23:55;11.95;;;4.38;;
16426;SDS011;8322;-33.900;151.170;2023-08-01T13:26:34;9.45;;;4.22;;
16426;SDS011;8322;-33.900;151.170;2023-08-01T13:29:05;10.88;;;4.45;;
16426;SDS011;8322;-33.900;151.170;2023-08-01T13:31:35;9.10;;;4.47;;
16426;SDS011;8322;-33.900;151.170;2023-08-01T13:34:05;9.93;;;4.50;;
16426;SDS011;8322;-33.900;151.170;2023-08-01T13:36:34;13.07;;;4.28;;
16426;SDS011;8322;-33.900;151.170;2023-08-01T13:39:04;8.63;;;4.38;;
16426;SDS011;8322;-33.900;151.170;2023-08-01T13:41:35;10.68;;;4.35;;
16426;SDS011;8322;-33.900;151.170;2023-08-01T13:44:06;10.07;;;4.78;;
16426;SDS011;8322;-33.900;151.170;2023-08-01T13:46:36;11.00;;;4.88;;
16426;SDS011;8322;-33.900;151.170;2023-08-01T13:49:08;14.73;;;5.15;;
16426;SDS011;8322;-33.900;151.170;2023-08-01T13:51:39;11.80;;;4.60;;
16426;SDS011;8322;-33.900;151.170;2023-08-01T13:54:08;12.73;;;4.85;;
16426;SDS011;8322;-33.900;151.170;2023-08-01T13:56:38;11.02;;;5.20;;
16426;SDS011;8322;-33.900;151.170;2023-08-01T13:59:09;9.88;;;5.20;;
16426;SDS011;8322;-33.900;151.170;2023-08-01T14:01:38;9.05;;;4.75;;
16426;SDS011;8322;-33.900;151.170;2023-08-01T14:04:08;11.35;;;5.07;;
16426;SDS011;8322;-33.900;151.170;2023-08-01T14:06:39;11.68;;;4.93;;
16426;SDS011;8322;-33.900;151.170;2023-08-01T14:09:09;13.98;;;5.32;;
16426;SDS011;8322;-33.900;151.170;2023-08-01T14:11:38;10.77;;;5.22;;
16426;SDS011;8322;-33.900;151.170;2023-08-01T14:14:10;10.55;;;5.22;;
16426;SDS011;8322;-33.900;151.170;2023-08-01T14:16:39;10.95;;;5.38;;
16426;SDS011;8322;-33.900;151.170;2023-08-01T14:19:09;11.80;;;5.50;;
16426;SDS011;8322;-33.900;151.170;2023-08-01T14:21:39;12.30;;;5.05;;
16426;SDS011;8322;-33.900;151.170;2023-08-01T14:24:08;10.60;;;4.80;;
16426;SDS011;8322;-33.900;151.170;2023-08-01T14:26:37;11.10;;;4.97;;
16426;SDS011;8322;-33.900;151.170;2023-08-01T14:29:09;14.15;;;4.93;;
16426;SDS011;8322;-33.900;151.170;2023-08-01T14:31:39;11.02;;;4.55;;
16426;SDS011;8322;-33.900;151.170;2023-08-01T14:34:08;10.88;;;4.55;;
16426;SDS011;8322;-33.900;151.170;2023-08-01T14:36:37;9.80;;;4.72;;
16426;SDS011;8322;-33.900;151.170;2023-08-01T14:39:07;14.05;;;4.90;;